sensor_id;sensor_type;location;lat;lon;timestamp;pressure;altitude;pressure_sealevel;temperature;humidity
1480;BME280;732;51.698;4.886;2022-11-15T00:02:38;100955.19;;;10.46;100.00
1480;BME280;732;51.698;4.886;2022-11-15T00:05:26;100957.84;;;10.48;100.00
1480;BME280;732;51.698;4.886;2022-11-15T00:08:14;100950.16;;;10.55;100.00
1480;BME280;732;51.698;4.886;2022-11-15T00:11:02;100904.41;;;10.34;100.00
1480;BME280;732;51.698;4.886;2022-11-15T00:13:49;100944.88;;;10.54;100.00
1480;BME280;732;51.698;4.886;2022-11-15T00:16:36;100947.63;;;10.60;100.00
1480;BME280;732;51.698;4.886;2022-11-15T00:19:23;100945.16;;;10.69;100.00
1480;BME280;732;51.698;4.886;2022-11-15T00:22:11;100933.13;;;10.76;100.00
1480;BME280;732;51.698;4.886;2022-11-15T00:24:58;100926.25;;;10.82;100.00
1480;BME280;732;51.698;4.886;2022-11-15T00:27:45;100926.25;;;10.82;100.00
1480;BME280;732;51.698;4.886;2022-11-15T00:30:32;100917.34;;;10.73;100.00
1480;BME280;732;51.698;4.886;2022-11-15T00:33:20;100921.84;;;10.78;100.00
1480;BME280;732;51.698;4.886;2022-11-15T00:36:08;100917.78;;;10.95;100.00
1480;BME280;732;51.698;4.886;2022-11-15T00:38:57;100913.50;;;10.99;100.00
1480;BME280;732;51.698;4.886;2022-11-15T00:41:44;100919.69;;;11.04;100.00
1480;BME280;732;51.698;4.886;2022-11-15T00:44:30;100911.84;;;11.04;100.00
1480;BME280;732;51.698;4.886;2022-11-15T00:47:17;100858.38;;;10.87;100.00
1480;BME280;732;51.698;4.886;2022-11-15T00:50:05;100898.81;;;11.08;100.00
1480;BME280;732;51.698;4.886;2022-11-15T00:52:56;100897.94;;;11.06;100.00
1480;BME280;732;51.698;4.886;2022-11-15T00:55:44;100905.06;;;11.15;100.00
1480;BME280;732;51.698;4.886;2022-11-15T00:58:31;100897.22;;;11.15;100.00
1480;BME280;732;51.698;4.886;2022-11-15T01:01:18;100899.03;;;11.20;100.00
1480;BME280;732;51.698;4.886;2022-11-15T01:04:05;100904.31;;;11.23;100.00
1480;BME280;732;51.698;4.886;2022-11-15T01:06:52;100898.00;;;11.11;100.00
1480;BME280;732;51.698;4.886;2022-11-15T01:09:39;100908.59;;;11.18;100.00
1480;BME280;732;51.698;4.886;2022-11-15T01:12:28;100912.94;;;11.18;100.00
1480;BME280;732;51.698;4.886;2022-11-15T01:15:15;100908.56;;;11.15;100.00
1480;BME280;732;51.698;4.886;2022-11-15T01:18:01;100912.88;;;11.13;100.00
1480;BME280;732;51.698;4.886;2022-11-15T01:20:48;100911.31;;;11.24;100.00
1480;BME280;732;51.698;4.886;2022-11-15T01:23:36;100884.00;;;11.07;100.00
1480;BME280;732;51.698;4.886;2022-11-15T01:26:24;100888.19;;;10.96;100.00
1480;BME280;732;51.698;4.886;2022-11-15T01:29:12;100888.16;;;10.95;100.00
1480;BME280;732;51.698;4.886;2022-11-15T01:31:59;100905.28;;;11.27;100.00
1480;BME280;732;51.698;4.886;2022-11-15T01:34:46;100903.63;;;11.33;100.00
1480;BME280;732;51.698;4.886;2022-11-15T01:37:32;100905.47;;;11.40;100.00
1480;BME280;732;51.698;4.886;2022-11-15T01:40:19;100896.75;;;11.40;100.00
1480;BME280;732;51.698;4.886;2022-11-15T01:43:22;100888.25;;;11.56;100.00
1480;BME280;732;51.698;4.886;2022-11-15T01:46:27;100863.81;;;11.54;100.00
1480;BME280;732;51.698;4.886;2022-11-15T01:49:19;100873.75;;;11.76;100.00
1480;BME280;732;51.698;4.886;2022-11-15T01:52:12;100852.63;;;11.64;100.00
1480;BME280;732;51.698;4.886;2022-11-15T01:55:06;100865.00;;;11.74;100.00
1480;BME280;732;51.698;4.886;2022-11-15T01:57:57;100843.84;;;11.61;100.00
1480;BME280;732;51.698;4.886;2022-11-15T02:00:46;100864.19;;;11.80;100.00
1480;BME280;732;51.698;4.886;2022-11-15T02:03:43;100868.50;;;11.75;100.00
1480;BME280;732;51.698;4.886;2022-11-15T02:06:30;100865.88;;;11.76;100.00
1480;BME280;732;51.698;4.886;2022-11-15T02:09:18;100865.19;;;11.89;100.00
1480;BME280;732;51.698;4.886;2022-11-15T02:12:07;100858.19;;;11.87;100.00
1480;BME280;732;51.698;4.886;2022-11-15T02:14:56;100860.72;;;11.81;100.00
1480;BME280;732;51.698;4.886;2022-11-15T02:17:58;100849.66;;;12.03;100.00
1480;BME280;732;51.698;4.886;2022-11-15T02:21:10;100842.81;;;12.14;100.00
1480;BME280;732;51.698;4.886;2022-11-15T02:24:45;100842.78;;;12.11;100.00
1480;BME280;732;51.698;4.886;2022-11-15T02:27:53;100818.25;;;12.04;100.00
1480;BME280;732;51.698;4.886;2022-11-15T02:30:53;100824.47;;;12.15;100.00
1480;BME280;732;51.698;4.886;2022-11-15T02:33:50;100836.03;;;12.31;100.00
1480;BME280;732;51.698;4.886;2022-11-15T02:36:44;100815.75;;;12.15;100.00
1480;BME280;732;51.698;4.886;2022-11-15T02:39:42;100829.72;;;12.15;100.00
1480;BME280;732;51.698;4.886;2022-11-15T02:42:35;100834.28;;;12.33;100.00
1480;BME280;732;51.698;4.886;2022-11-15T02:45:48;100827.50;;;12.52;100.00
1480;BME280;732;51.698;4.886;2022-11-15T02:48:38;100830.84;;;12.37;100.00
1480;BME280;732;51.698;4.886;2022-11-15T02:51:25;100812.56;;;12.41;100.00
1480;BME280;732;51.698;4.886;2022-11-15T02:54:17;100810.84;;;12.43;100.00
1480;BME280;732;51.698;4.886;2022-11-15T02:57:12;100832.81;;;12.56;100.00
1480;BME280;732;51.698;4.886;2022-11-15T03:00:08;100804.81;;;12.55;100.00
1480;BME280;732;51.698;4.886;2022-11-15T03:03:10;100833.88;;;12.78;100.00
1480;BME280;732;51.698;4.886;2022-11-15T03:06:09;100801.47;;;12.71;100.00
1480;BME280;732;51.698;4.886;2022-11-15T03:09:07;100820.75;;;12.75;100.00
1480;BME280;732;51.698;4.886;2022-11-15T03:12:03;100799.63;;;12.58;100.00
1480;BME280;732;51.698;4.886;2022-11-15T03:14:57;100828.53;;;12.66;100.00
1480;BME280;732;51.698;4.886;2022-11-15T03:17:51;100815.28;;;12.54;100.00
1480;BME280;732;51.698;4.886;2022-11-15T03:20:44;100825.94;;;12.70;100.00
1480;BME280;732;51.698;4.886;2022-11-15T03:23:33;100824.94;;;12.58;100.00
1480;BME280;732;51.698;4.886;2022-11-15T03:26:24;100833.72;;;12.61;100.00
1480;BME280;732;51.698;4.886;2022-11-15T03:29:16;100789.88;;;12.46;100.00
1480;BME280;732;51.698;4.886;2022-11-15T03:32:08;100839.94;;;12.71;100.00
1480;BME280;732;51.698;4.886;2022-11-15T03:35:01;100828.63;;;12.78;100.00
1480;BME280;732;51.698;4.886;2022-11-15T03:37:54;100812.84;;;12.72;100.00
1480;BME280;732;51.698;4.886;2022-11-15T03:40:59;100824.25;;;12.77;100.00
1480;BME280;732;51.698;4.886;2022-11-15T03:43:51;100822.47;;;12.73;100.00
1480;BME280;732;51.698;4.886;2022-11-15T03:46:43;100805.00;;;12.78;100.00
1480;BME280;732;51.698;4.886;2022-11-15T03:49:35;100808.66;;;12.92;100.00
1480;BME280;732;51.698;4.886;2022-11-15T03:52:23;100783.06;;;12.64;100.00
1480;BME280;732;51.698;4.886;2022-11-15T03:55:15;100779.69;;;12.78;100.00
1480;BME280;732;51.698;4.886;2022-11-15T03:58:03;100778.91;;;12.90;100.00
1480;BME280;732;51.698;4.886;2022-11-15T04:00:49;100807.91;;;13.03;100.00
1480;BME280;732;51.698;4.886;2022-11-15T04:03:36;100812.28;;;13.04;100.00
1480;BME280;732;51.698;4.886;2022-11-15T04:06:23;100799.94;;;12.96;100.00
1480;BME280;732;51.698;4.886;2022-11-15T04:09:10;100800.03;;;13.05;100.00
1480;BME280;732;51.698;4.886;2022-11-15T04:11:59;100806.22;;;13.14;100.00
1480;BME280;732;51.698;4.886;2022-11-15T04:14:45;100787.81;;;13.05;100.00
1480;BME280;732;51.698;4.886;2022-11-15T04:17:54;100774.53;;;12.90;100.00
1480;BME280;732;51.698;4.886;2022-11-15T04:20:42;100814.09;;;13.14;100.00
1480;BME280;732;51.698;4.886;2022-11-15T04:23:46;100815.78;;;13.08;100.00
1480;BME280;732;51.698;4.886;2022-11-15T04:26:50;100811.34;;;13.01;100.00
1480;BME280;732;51.698;4.886;2022-11-15T04:29:38;100822.59;;;12.85;100.00
1480;BME280;732;51.698;4.886;2022-11-15T04:32:25;100818.00;;;12.63;100.00
1480;BME280;732;51.698;4.886;2022-11-15T04:35:12;100822.47;;;12.71;100.00
1480;BME280;732;51.698;4.886;2022-11-15T04:38:00;100819.84;;;12.71;100.00
1480;BME280;732;51.698;4.886;2022-11-15T04:40:47;100818.94;;;12.71;100.00
1480;BME280;732;51.698;4.886;2022-11-15T04:43:34;100813.63;;;12.60;100.00
1480;BME280;732;51.698;4.886;2022-11-15T04:46:23;100824.88;;;12.52;100.00
1480;BME280;732;51.698;4.886;2022-11-15T04:49:10;100820.66;;;12.64;100.00
1480;BME280;732;51.698;4.886;2022-11-15T04:51:58;100817.16;;;12.64;100.00
1480;BME280;732;51.698;4.886;2022-11-15T04:54:45;100817.28;;;12.77;100.00
1480;BME280;732;51.698;4.886;2022-11-15T04:57:32;100788.31;;;12.65;100.00
1480;BME280;732;51.698;4.886;2022-11-15T05:00:19;100804.94;;;12.67;100.00
1480;BME280;732;51.698;4.886;2022-11-15T05:03:09;100812.81;;;12.67;100.00
1480;BME280;732;51.698;4.886;2022-11-15T05:06:14;100799.75;;;12.75;100.00
1480;BME280;732;51.698;4.886;2022-11-15T05:09:01;100797.91;;;12.66;100.00
1480;BME280;732;51.698;4.886;2022-11-15T05:11:48;100810.25;;;12.75;100.00
1480;BME280;732;51.698;4.886;2022-11-15T05:14:34;100815.44;;;12.69;100.00
1480;BME280;732;51.698;4.886;2022-11-15T05:17:21;100816.25;;;12.65;100.00
1480;BME280;732;51.698;4.886;2022-11-15T05:20:11;100815.41;;;12.66;100.00
1480;BME280;732;51.698;4.886;2022-11-15T05:22:58;100820.72;;;12.73;100.00
1480;BME280;732;51.698;4.886;2022-11-15T05:25:45;100820.75;;;12.75;100.00
1480;BME280;732;51.698;4.886;2022-11-15T05:28:32;100816.41;;;12.78;100.00
1480;BME280;732;51.698;4.886;2022-11-15T05:31:19;100833.16;;;12.95;100.00
1480;BME280;732;51.698;4.886;2022-11-15T05:34:07;100814.75;;;12.89;100.00
1480;BME280;732;51.698;4.886;2022-11-15T05:36:55;100825.16;;;12.83;100.00
1480;BME280;732;51.698;4.886;2022-11-15T05:39:42;100827.03;;;12.95;100.00
1480;BME280;732;51.698;4.886;2022-11-15T05:42:29;100820.03;;;12.92;100.00
1480;BME280;732;51.698;4.886;2022-11-15T05:45:16;100829.66;;;12.95;100.00
1480;BME280;732;51.698;4.886;2022-11-15T05:48:11;100810.25;;;12.76;100.00
1480;BME280;732;51.698;4.886;2022-11-15T05:50:59;100832.19;;;12.84;100.00
1480;BME280;732;51.698;4.886;2022-11-15T05:53:48;100809.34;;;12.74;100.00
1480;BME280;732;51.698;4.886;2022-11-15T05:56:36;100827.00;;;12.92;100.00
1480;BME280;732;51.698;4.886;2022-11-15T05:59:23;100826.19;;;12.99;100.00
1480;BME280;732;51.698;4.886;2022-11-15T06:02:11;100823.50;;;12.91;100.00
1480;BME280;732;51.698;4.886;2022-11-15T06:04:58;100824.56;;;13.10;100.00
1480;BME280;732;51.698;4.886;2022-11-15T06:07:45;100811.44;;;13.11;100.00
1480;BME280;732;51.698;4.886;2022-11-15T06:10:34;100821.09;;;13.17;100.00
1480;BME280;732;51.698;4.886;2022-11-15T06:13:21;100825.44;;;13.10;100.00
1480;BME280;732;51.698;4.886;2022-11-15T06:16:08;100826.34;;;13.17;100.00
1480;BME280;732;51.698;4.886;2022-11-15T06:18:55;100834.19;;;13.11;100.00
1480;BME280;732;51.698;4.886;2022-11-15T06:21:42;100842.81;;;13.01;100.00
1480;BME280;732;51.698;4.886;2022-11-15T06:24:29;100812.16;;;12.92;100.00
1480;BME280;732;51.698;4.886;2022-11-15T06:27:17;100847.19;;;13.00;100.00
1480;BME280;732;51.698;4.886;2022-11-15T06:30:05;100847.28;;;13.08;100.00
1480;BME280;732;51.698;4.886;2022-11-15T06:33:00;100821.72;;;12.89;100.00
1480;BME280;732;51.698;4.886;2022-11-15T06:35:48;100827.19;;;13.10;100.00
1480;BME280;732;51.698;4.886;2022-11-15T06:38:35;100825.16;;;12.83;100.00
1480;BME280;732;51.698;4.886;2022-11-15T06:41:22;100835.00;;;13.04;100.00
1480;BME280;732;51.698;4.886;2022-11-15T06:44:11;100849.00;;;13.04;100.00
1480;BME280;732;51.698;4.886;2022-11-15T06:46:58;100851.50;;;12.95;100.00
1480;BME280;732;51.698;4.886;2022-11-15T06:49:44;100848.91;;;12.95;100.00
1480;BME280;732;51.698;4.886;2022-11-15T06:52:32;100850.47;;;12.75;100.00
1480;BME280;732;51.698;4.886;2022-11-15T06:55:19;100856.47;;;12.65;100.00
1480;BME280;732;51.698;4.886;2022-11-15T06:58:06;100849.44;;;12.60;100.00
1480;BME280;732;51.698;4.886;2022-11-15T07:00:58;100854.78;;;12.70;100.00
1480;BME280;732;51.698;4.886;2022-11-15T07:03:45;100846.81;;;12.60;100.00
1480;BME280;732;51.698;4.886;2022-11-15T07:06:32;100857.38;;;12.67;100.00
1480;BME280;732;51.698;4.886;2022-11-15T07:09:19;100849.44;;;12.63;100.00
1480;BME280;732;51.698;4.886;2022-11-15T07:12:06;100853.78;;;12.56;100.00
1480;BME280;732;51.698;4.886;2022-11-15T07:14:53;100849.44;;;12.63;100.00
1480;BME280;732;51.698;4.886;2022-11-15T07:17:41;100851.31;;;12.76;100.00
1480;BME280;732;51.698;4.886;2022-11-15T07:20:28;100853.09;;;12.78;100.00
1480;BME280;732;51.698;4.886;2022-11-15T07:23:15;100849.56;;;12.73;100.00
1480;BME280;732;51.698;4.886;2022-11-15T07:26:02;100860.97;;;12.78;100.00
1480;BME280;732;51.698;4.886;2022-11-15T07:28:50;100853.16;;;12.83;100.00
1480;BME280;732;51.698;4.886;2022-11-15T07:31:37;100854.13;;;12.92;100.00
1480;BME280;732;51.698;4.886;2022-11-15T07:34:25;100856.63;;;12.83;100.00
1480;BME280;732;51.698;4.886;2022-11-15T07:37:12;100862.00;;;12.95;100.00
1480;BME280;732;51.698;4.886;2022-11-15T07:39:59;100858.44;;;12.89;100.00
1480;BME280;732;51.698;4.886;2022-11-15T07:42:46;100829.56;;;12.83;100.00
1480;BME280;732;51.698;4.886;2022-11-15T07:45:41;100859.38;;;12.92;100.00
1480;BME280;732;51.698;4.886;2022-11-15T07:48:29;100854.88;;;12.81;100.00
1480;BME280;732;51.698;4.886;2022-11-15T07:51:29;100831.00;;;12.49;100.00
1480;BME280;732;51.698;4.886;2022-11-15T07:54:16;100854.88;;;12.81;100.00
1480;BME280;732;51.698;4.886;2022-11-15T07:57:03;100846.13;;;12.79;100.00
1480;BME280;732;51.698;4.886;2022-11-15T07:59:52;100856.41;;;12.61;100.00
1480;BME280;732;51.698;4.886;2022-11-15T08:02:39;100852.06;;;12.58;100.00
1480;BME280;732;51.698;4.886;2022-11-15T08:05:27;100853.63;;;12.45;100.00
1480;BME280;732;51.698;4.886;2022-11-15T08:08:15;100850.91;;;12.35;100.00
1480;BME280;732;51.698;4.886;2022-11-15T08:11:03;100826.50;;;12.39;100.00
1480;BME280;732;51.698;4.886;2022-11-15T08:13:50;100835.38;;;12.53;100.00
1480;BME280;732;51.698;4.886;2022-11-15T08:16:37;100823.28;;;12.66;100.00
1480;BME280;732;51.698;4.886;2022-11-15T08:19:24;100832.06;;;12.74;100.00
1480;BME280;732;51.698;4.886;2022-11-15T08:22:11;100835.56;;;12.70;100.00
1480;BME280;732;51.698;4.886;2022-11-15T08:24:59;100825.97;;;12.75;100.00
1480;BME280;732;51.698;4.886;2022-11-15T08:27:46;100821.63;;;12.75;100.00
1480;BME280;732;51.698;4.886;2022-11-15T08:30:36;100802.31;;;12.69;100.00
1480;BME280;732;51.698;4.886;2022-11-15T08:33:24;100816.38;;;12.77;100.00
1480;BME280;732;51.698;4.886;2022-11-15T08:36:14;100814.66;;;12.77;100.00
1480;BME280;732;51.698;4.886;2022-11-15T08:39:01;100809.41;;;12.79;100.00
1480;BME280;732;51.698;4.886;2022-11-15T08:41:49;100811.09;;;12.74;100.00
1480;BME280;732;51.698;4.886;2022-11-15T08:44:37;100803.97;;;12.58;100.00
1480;BME280;732;51.698;4.886;2022-11-15T08:47:23;100769.69;;;12.35;100.00
1480;BME280;732;51.698;4.886;2022-11-15T08:50:11;100806.66;;;12.67;100.00
1480;BME280;732;51.698;4.886;2022-11-15T08:53:03;100796.03;;;12.50;100.00
1480;BME280;732;51.698;4.886;2022-11-15T08:55:50;100801.94;;;12.29;100.00
1480;BME280;732;51.698;4.886;2022-11-15T08:58:39;100772.94;;;12.11;100.00
1480;BME280;732;51.698;4.886;2022-11-15T09:01:26;100771.31;;;12.24;100.00
1480;BME280;732;51.698;4.886;2022-11-15T09:04:13;100790.69;;;12.39;100.00
1480;BME280;732;51.698;4.886;2022-11-15T09:07:00;100801.88;;;12.25;100.00
1480;BME280;732;51.698;4.886;2022-11-15T09:09:47;100795.78;;;12.24;100.00
1480;BME280;732;51.698;4.886;2022-11-15T09:12:34;100787.28;;;12.49;100.00
1480;BME280;732;51.698;4.886;2022-11-15T09:15:22;100788.31;;;12.65;100.00
1480;BME280;732;51.698;4.886;2022-11-15T09:18:08;100787.41;;;12.60;100.00
1480;BME280;732;51.698;4.886;2022-11-15T09:20:56;100785.69;;;12.64;100.00
1480;BME280;732;51.698;4.886;2022-11-15T09:23:43;100785.63;;;12.56;100.00
1480;BME280;732;51.698;4.886;2022-11-15T09:26:30;100786.69;;;12.79;100.00
1480;BME280;732;51.698;4.886;2022-11-15T09:29:17;100782.34;;;12.84;100.00
1480;BME280;732;51.698;4.886;2022-11-15T09:32:06;100785.69;;;12.68;100.00
1480;BME280;732;51.698;4.886;2022-11-15T09:34:53;100784.97;;;12.84;100.00
1480;BME280;732;51.698;4.886;2022-11-15T09:37:41;100774.59;;;12.99;100.00
1480;BME280;732;51.698;4.886;2022-11-15T09:40:29;100744.69;;;12.73;100.00
1480;BME280;732;51.698;4.886;2022-11-15T09:43:30;100772.06;;;13.11;100.00
1480;BME280;732;51.698;4.886;2022-11-15T09:46:28;100780.84;;;13.12;100.00
1480;BME280;732;51.698;4.886;2022-11-15T09:49:30;100745.75;;;12.99;100.00
1480;BME280;732;51.698;4.886;2022-11-15T09:52:25;100729.06;;;12.94;100.00
1480;BME280;732;51.698;4.886;2022-11-15T09:54:54;100750.28;;;13.24;100.00
1480;BME280;732;51.698;4.886;2022-11-15T09:57:31;100746.00;;;13.38;100.00
1480;BME280;732;51.698;4.886;2022-11-15T10:00:20;100746.97;;;13.54;100.00
1480;BME280;732;51.698;4.886;2022-11-15T10:03:13;100745.28;;;13.71;100.00
1480;BME280;732;51.698;4.886;2022-11-15T10:05:46;100720.75;;;13.66;100.00
1480;BME280;732;51.698;4.886;2022-11-15T10:08:31;100717.22;;;13.51;100.00
1480;BME280;732;51.698;4.886;2022-11-15T10:11:07;100726.88;;;13.64;100.00
1480;BME280;732;51.698;4.886;2022-11-15T10:14:01;100692.69;;;13.53;100.00
1480;BME280;732;51.698;4.886;2022-11-15T10:16:59;100720.78;;;13.83;100.00
1480;BME280;732;51.698;4.886;2022-11-15T10:19:37;100698.06;;;13.97;100.00
1480;BME280;732;51.698;4.886;2022-11-15T10:22:24;100696.34;;;13.97;100.00
1480;BME280;732;51.698;4.886;2022-11-15T10:25:10;100713.94;;;14.27;100.00
1480;BME280;732;51.698;4.886;2022-11-15T10:27:41;100711.25;;;14.22;100.00
1480;BME280;732;51.698;4.886;2022-11-15T10:30:14;100701.59;;;14.06;100.00
1480;BME280;732;51.698;4.886;2022-11-15T10:32:45;100677.09;;;14.12;100.00
1480;BME280;732;51.698;4.886;2022-11-15T10:35:23;100687.56;;;14.06;100.00
1480;BME280;732;51.698;4.886;2022-11-15T10:38:05;100694.63;;;14.43;100.00
1480;BME280;732;51.698;4.886;2022-11-15T10:40:35;100694.66;;;14.54;100.00
1480;BME280;732;51.698;4.886;2022-11-15T10:43:14;100681.50;;;14.49;100.00
1480;BME280;732;51.698;4.886;2022-11-15T10:45:44;100670.13;;;14.35;100.00
1480;BME280;732;51.698;4.886;2022-11-15T10:48:25;100675.38;;;14.52;100.00
1480;BME280;732;51.698;4.886;2022-11-15T10:50:55;100674.47;;;14.75;100.00
1480;BME280;732;51.698;4.886;2022-11-15T10:53:31;100636.75;;;14.81;100.00
1480;BME280;732;51.698;4.886;2022-11-15T10:56:05;100645.50;;;14.81;100.00
1480;BME280;732;51.698;4.886;2022-11-15T10:58:39;100620.09;;;14.76;100.00
1480;BME280;732;51.698;4.886;2022-11-15T11:01:14;100646.34;;;14.98;100.00
1480;BME280;732;51.698;4.886;2022-11-15T11:03:44;100627.94;;;14.91;100.00
1480;BME280;732;51.698;4.886;2022-11-15T11:06:16;100629.66;;;15.10;100.00
1480;BME280;732;51.698;4.886;2022-11-15T11:08:57;100623.50;;;15.09;100.00
1480;BME280;732;51.698;4.886;2022-11-15T11:11:45;100624.25;;;15.37;100.00
1480;BME280;732;51.698;4.886;2022-11-15T11:14:20;100618.06;;;15.50;100.00
1480;BME280;732;51.698;4.886;2022-11-15T11:16:53;100610.06;;;15.68;100.00
1480;BME280;732;51.698;4.886;2022-11-15T11:19:56;100586.44;;;15.56;100.00
1480;BME280;732;51.698;4.886;2022-11-15T11:22:37;100587.38;;;15.40;100.00
1480;BME280;732;51.698;4.886;2022-11-15T11:25:26;100576.81;;;15.39;100.00
1480;BME280;732;51.698;4.886;2022-11-15T11:28:19;100566.13;;;15.69;100.00
1480;BME280;732;51.698;4.886;2022-11-15T11:31:00;100573.81;;;15.99;100.00
1480;BME280;732;51.698;4.886;2022-11-15T11:33:44;100564.38;;;15.74;100.00
1480;BME280;732;51.698;4.886;2022-11-15T11:36:21;100538.84;;;15.79;100.00
1480;BME280;732;51.698;4.886;2022-11-15T11:39:00;100558.91;;;15.93;100.00
1480;BME280;732;51.698;4.886;2022-11-15T11:42:01;100551.69;;;16.18;100.00
1480;BME280;732;51.698;4.886;2022-11-15T11:44:46;100531.84;;;15.73;100.00
1480;BME280;732;51.698;4.886;2022-11-15T11:47:22;100515.75;;;16.05;100.00
1480;BME280;732;51.698;4.886;2022-11-15T11:49:55;100525.31;;;16.16;100.00
1480;BME280;732;51.698;4.886;2022-11-15T11:52:29;100510.22;;;16.31;100.00
1480;BME280;732;51.698;4.886;2022-11-15T11:55:05;100524.34;;;16.28;100.00
1480;BME280;732;51.698;4.886;2022-11-15T11:57:46;100504.16;;;16.24;100.00
1480;BME280;732;51.698;4.886;2022-11-15T12:00:20;100510.88;;;16.57;100.00
1480;BME280;732;51.698;4.886;2022-11-15T12:03:03;100506.19;;;16.78;100.00
1480;BME280;732;51.698;4.886;2022-11-15T12:05:40;100495.75;;;16.71;100.00
1480;BME280;732;51.698;4.886;2022-11-15T12:08:27;100499.03;;;16.88;100.00
1480;BME280;732;51.698;4.886;2022-11-15T12:11:07;100457.88;;;16.73;100.00
1480;BME280;732;51.698;4.886;2022-11-15T12:13:40;100471.75;;;16.87;100.00
1480;BME280;732;51.698;4.886;2022-11-15T12:16:14;100480.06;;;16.57;100.00
1480;BME280;732;51.698;4.886;2022-11-15T12:18:47;100473.19;;;16.43;100.00
1480;BME280;732;51.698;4.886;2022-11-15T12:21:22;100467.81;;;16.52;100.00
1480;BME280;732;51.698;4.886;2022-11-15T12:23:59;100467.69;;;16.64;100.00
1480;BME280;732;51.698;4.886;2022-11-15T12:26:35;100474.91;;;16.45;100.00
1480;BME280;732;51.698;4.886;2022-11-15T12:29:16;100447.84;;;16.30;100.00
1480;BME280;732;51.698;4.886;2022-11-15T12:31:50;100464.47;;;16.35;100.00
1480;BME280;732;51.698;4.886;2022-11-15T12:34:43;100466.28;;;16.31;100.00
1480;BME280;732;51.698;4.886;2022-11-15T12:37:33;100452.50;;;16.05;100.00
1480;BME280;732;51.698;4.886;2022-11-15T12:40:24;100443.84;;;15.92;100.00
1480;BME280;732;51.698;4.886;2022-11-15T12:46:18;100430.69;;;15.89;100.00
1480;BME280;732;51.698;4.886;2022-11-15T12:48:54;100422.09;;;15.69;100.00
1480;BME280;732;51.698;4.886;2022-11-15T12:52:08;100430.72;;;15.88;100.00
1480;BME280;732;51.698;4.886;2022-11-15T12:54:58;100408.84;;;15.80;100.00
1480;BME280;732;51.698;4.886;2022-11-15T12:57:34;100427.16;;;15.92;100.00
1480;BME280;732;51.698;4.886;2022-11-15T13:00:42;100419.31;;;15.86;100.00
1480;BME280;732;51.698;4.886;2022-11-15T13:03:28;100416.81;;;15.74;100.00
1480;BME280;732;51.698;4.886;2022-11-15T13:06:10;100408.84;;;15.81;100.00
1480;BME280;732;51.698;4.886;2022-11-15T13:08:58;100396.56;;;15.77;100.00
1480;BME280;732;51.698;4.886;2022-11-15T13:11:53;100374.63;;;15.75;100.00
1480;BME280;732;51.698;4.886;2022-11-15T13:14:46;100386.91;;;15.78;100.00
1480;BME280;732;51.698;4.886;2022-11-15T13:17:32;100389.63;;;15.69;100.00
1480;BME280;732;51.698;4.886;2022-11-15T13:20:31;100380.72;;;15.80;100.00
1480;BME280;732;51.698;4.886;2022-11-15T13:23:08;100379.78;;;15.86;100.00
1480;BME280;732;51.698;4.886;2022-11-15T13:28:46;100347.41;;;15.73;100.00
1480;BME280;732;51.698;4.886;2022-11-15T13:31:34;100367.47;;;15.88;100.00
1480;BME280;732;51.698;4.886;2022-11-15T13:34:26;100361.31;;;15.86;100.00
1480;BME280;732;51.698;4.886;2022-11-15T13:37:29;100344.72;;;15.79;100.00
1480;BME280;732;51.698;4.886;2022-11-15T13:40:20;100349.06;;;15.85;100.00
1480;BME280;732;51.698;4.886;2022-11-15T13:42:49;100336.75;;;15.84;100.00
1480;BME280;732;51.698;4.886;2022-11-15T13:45:19;100314.09;;;15.69;100.00
1480;BME280;732;51.698;4.886;2022-11-15T13:47:58;100318.53;;;15.66;100.00
1480;BME280;732;51.698;4.886;2022-11-15T13:50:31;100327.06;;;15.89;100.00
1480;BME280;732;51.698;4.886;2022-11-15T13:53:03;100313.97;;;15.78;100.00
1480;BME280;732;51.698;4.886;2022-11-15T13:55:33;100313.03;;;15.84;100.00
1480;BME280;732;51.698;4.886;2022-11-15T13:58:04;100286.13;;;15.58;100.00
1480;BME280;732;51.698;4.886;2022-11-15T14:00:37;100286.13;;;15.56;100.00
1480;BME280;732;51.698;4.886;2022-11-15T14:03:15;100285.09;;;15.69;100.00
1480;BME280;732;51.698;4.886;2022-11-15T14:06:03;100298.22;;;15.75;100.00
1480;BME280;732;51.698;4.886;2022-11-15T14:08:35;100278.31;;;15.49;100.00
1480;BME280;732;51.698;4.886;2022-11-15T14:11:15;100284.59;;;15.34;100.00
1480;BME280;732;51.698;4.886;2022-11-15T14:14:11;100282.84;;;15.35;100.00
1480;BME280;732;51.698;4.886;2022-11-15T14:16:42;100269.59;;;15.45;100.00
1480;BME280;732;51.698;4.886;2022-11-15T14:19:13;100256.47;;;15.42;100.00
1480;BME280;732;51.698;4.886;2022-11-15T14:22:20;100262.63;;;15.37;100.00
1480;BME280;732;51.698;4.886;2022-11-15T14:27:43;100243.31;;;15.36;100.00
1480;BME280;732;51.698;4.886;2022-11-15T14:30:16;100231.09;;;15.30;100.00
1480;BME280;732;51.698;4.886;2022-11-15T14:32:47;100250.28;;;15.43;100.00
1480;BME280;732;51.698;4.886;2022-11-15T14:35:18;100240.78;;;15.28;100.00
1480;BME280;732;51.698;4.886;2022-11-15T14:37:47;100231.13;;;15.26;100.00
1480;BME280;732;51.698;4.886;2022-11-15T14:40:18;100223.25;;;15.24;100.00
1480;BME280;732;51.698;4.886;2022-11-15T14:42:49;100229.19;;;15.45;100.00
1480;BME280;732;51.698;4.886;2022-11-15T14:45:21;100214.41;;;15.30;100.00
1480;BME280;732;51.698;4.886;2022-11-15T14:47:49;100209.06;;;15.42;100.00
1480;BME280;732;51.698;4.886;2022-11-15T14:50:20;100228.34;;;15.40;100.00
1480;BME280;732;51.698;4.886;2022-11-15T14:52:49;100223.09;;;15.44;100.00
1480;BME280;732;51.698;4.886;2022-11-15T14:55:21;100207.34;;;15.33;100.00
1480;BME280;732;51.698;4.886;2022-11-15T14:57:51;100224.03;;;15.34;100.00
1480;BME280;732;51.698;4.886;2022-11-15T15:00:21;100219.72;;;15.28;100.00
1480;BME280;732;51.698;4.886;2022-11-15T15:02:53;100190.94;;;15.10;100.00